createdAt,value
2022-12-20T00:00:29.248Z,-4.26
2022-12-20T00:03:14.830Z,-4.24
2022-12-20T00:06:00.530Z,-4.23
2022-12-20T00:08:46.485Z,-4.23
2022-12-20T00:11:32.492Z,-4.24
2022-12-20T00:14:18.251Z,-4.28
2022-12-20T00:17:03.866Z,-4.28
2022-12-20T00:19:49.377Z,-4.26
2022-12-20T00:22:34.835Z,-4.26
2022-12-20T00:25:20.958Z,-4.26
2022-12-20T00:28:06.484Z,-4.29
2022-12-20T00:30:55.675Z,-4.30
2022-12-20T00:33:41.731Z,-4.30
2022-12-20T00:36:30.094Z,-4.31
2022-12-20T00:39:15.389Z,-4.29
2022-12-20T00:42:00.762Z,-4.29
2022-12-20T00:44:46.109Z,-4.29
2022-12-20T00:47:31.783Z,-4.27
2022-12-20T00:50:17.334Z,-4.27
2022-12-20T00:53:02.931Z,-4.28
2022-12-20T00:55:48.231Z,-4.30
2022-12-20T00:58:35.743Z,-4.30
2022-12-20T01:01:31.140Z,-4.27
2022-12-20T01:04:16.721Z,-4.24
2022-12-20T01:07:02.561Z,-4.23
2022-12-20T01:09:47.995Z,-4.22
2022-12-20T01:12:33.417Z,-4.19
2022-12-20T01:15:20.065Z,-4.15
2022-12-20T01:18:05.718Z,-4.12
2022-12-20T01:21:01.521Z,-4.07
2022-12-20T01:23:47.167Z,-4.05
2022-12-20T01:26:32.424Z,-4.01
2022-12-20T01:29:17.877Z,-3.96
2022-12-20T01:32:03.721Z,-3.95
2022-12-20T01:34:49.110Z,-3.93
2022-12-20T01:37:34.512Z,-3.90
2022-12-20T01:40:20.358Z,-3.89
2022-12-20T01:43:05.925Z,-3.85
2022-12-20T01:45:51.632Z,-3.83
2022-12-20T01:48:36.976Z,-3.81
2022-12-20T01:51:24.183Z,-3.80
2022-12-20T01:54:23.739Z,-3.78
2022-12-20T01:57:20.514Z,-3.76
2022-12-20T02:00:08.731Z,-3.73
2022-12-20T02:03:06.398Z,-3.72
2022-12-20T02:05:52.347Z,-3.69
2022-12-20T02:08:38.124Z,-3.69
2022-12-20T02:11:46.627Z,-3.68
2022-12-20T02:14:41.375Z,-3.65
2022-12-20T02:17:48.760Z,-3.62
2022-12-20T02:20:55.495Z,-3.60
2022-12-20T02:24:18.109Z,-3.58
2022-12-20T02:27:40.594Z,-3.55
2022-12-20T02:30:32.847Z,-3.53
2022-12-20T02:33:20.188Z,-3.52
2022-12-20T02:36:05.833Z,-3.50
2022-12-20T02:38:52.786Z,-3.49
2022-12-20T02:41:48.437Z,-3.47
2022-12-20T02:44:56.379Z,-3.44
2022-12-20T02:47:47.552Z,-3.43
2022-12-20T02:50:54.737Z,-3.41
2022-12-20T02:53:43.207Z,-3.42
2022-12-20T02:56:47.600Z,-3.41
2022-12-20T02:59:40.069Z,-3.39
2022-12-20T03:02:27.003Z,-3.38
2022-12-20T03:05:12.807Z,-3.36
2022-12-20T03:07:59.345Z,-3.36
2022-12-20T03:10:45.025Z,-3.35
2022-12-20T03:13:30.980Z,-3.34
2022-12-20T03:16:20.914Z,-3.33
2022-12-20T03:19:06.575Z,-3.33
2022-12-20T03:21:52.659Z,-3.32
2022-12-20T03:24:38.124Z,-3.31
2022-12-20T03:27:29.657Z,-3.32
2022-12-20T03:30:16.482Z,-3.32
2022-12-20T03:33:02.514Z,-3.32
2022-12-20T03:35:48.481Z,-3.32
2022-12-20T03:38:36.491Z,-3.31
2022-12-20T03:41:23.913Z,-3.31
2022-12-20T03:44:11.668Z,-3.31
2022-12-20T03:46:57.005Z,-3.30
2022-12-20T03:49:43.158Z,-3.32
2022-12-20T03:52:28.511Z,-3.32
2022-12-20T03:55:13.962Z,-3.29
2022-12-20T03:58:02.248Z,-3.29
2022-12-20T04:00:51.638Z,-3.28
2022-12-20T04:03:57.534Z,-3.28
2022-12-20T04:06:42.923Z,-3.26
2022-12-20T04:09:28.840Z,-3.26
2022-12-20T04:12:21.572Z,-3.26
2022-12-20T04:15:08.215Z,-3.24
2022-12-20T04:17:55.255Z,-3.26
2022-12-20T04:20:40.660Z,-3.23
2022-12-20T04:23:39.331Z,-3.22
2022-12-20T04:26:25.792Z,-3.23
2022-12-20T04:29:11.435Z,-3.23
2022-12-20T04:31:58.303Z,-3.23
2022-12-20T04:34:43.791Z,-3.20
2022-12-20T04:37:29.143Z,-3.21
2022-12-20T04:40:16.188Z,-3.18
2022-12-20T04:43:05.872Z,-3.18
2022-12-20T04:45:53.339Z,-3.16
2022-12-20T04:48:58.533Z,-3.16
2022-12-20T04:51:44.651Z,-3.13
2022-12-20T04:54:31.637Z,-3.13
2022-12-20T04:57:29.571Z,-3.09
2022-12-20T05:00:18.211Z,-3.09
2022-12-20T05:03:09.715Z,-3.10
2022-12-20T05:05:55.478Z,-3.10
2022-12-20T05:08:42.498Z,-3.11
2022-12-20T05:11:27.966Z,-3.10
2022-12-20T05:14:13.223Z,-3.09
2022-12-20T05:16:58.808Z,-3.08
2022-12-20T05:19:45.885Z,-3.08
2022-12-20T05:22:51.452Z,-3.09
2022-12-20T05:25:58.481Z,-3.09
2022-12-20T05:28:44.725Z,-3.05
2022-12-20T05:31:30.662Z,-3.04
2022-12-20T05:34:16.515Z,-3.06
2022-12-20T05:37:07.093Z,-3.03
2022-12-20T05:39:54.909Z,-3.01
2022-12-20T05:42:42.243Z,-2.99
2022-12-20T05:45:28.548Z,-2.98
2022-12-20T05:48:20.693Z,-2.97
2022-12-20T05:51:06.916Z,-2.96
2022-12-20T05:54:02.559Z,-2.96
2022-12-20T05:57:16.208Z,-2.96
2022-12-20T06:00:01.798Z,-2.96
2022-12-20T06:02:50.647Z,-2.96
2022-12-20T06:05:38.156Z,-2.94
2022-12-20T06:08:24.649Z,-2.92
2022-12-20T06:11:11.670Z,-2.91
2022-12-20T06:14:06.791Z,-2.90
2022-12-20T06:16:55.004Z,-2.88
2022-12-20T06:19:43.913Z,-2.89
2022-12-20T06:22:33.467Z,-2.91
2022-12-20T06:25:19.363Z,-2.90
2022-12-20T06:28:05.910Z,-2.89
2022-12-20T06:30:56.429Z,-2.88
2022-12-20T06:33:57.918Z,-2.91
2022-12-20T06:36:47.174Z,-2.91
2022-12-20T06:39:37.515Z,-2.90
2022-12-20T06:42:24.707Z,-2.90
2022-12-20T06:45:10.734Z,-2.90
2022-12-20T06:47:57.805Z,-2.89
2022-12-20T06:50:47.088Z,-2.87
2022-12-20T06:53:37.988Z,-2.87
2022-12-20T06:56:23.452Z,-2.85
2022-12-20T06:59:09.337Z,-2.82
2022-12-20T07:01:55.121Z,-2.81
2022-12-20T07:04:41.034Z,-2.81
2022-12-20T07:07:26.336Z,-2.79
2022-12-20T07:10:11.933Z,-2.77
2022-12-20T07:12:57.376Z,-2.75
2022-12-20T07:15:43.092Z,-2.76
2022-12-20T07:18:29.984Z,-2.74
2022-12-20T07:21:17.314Z,-2.73
2022-12-20T07:24:02.639Z,-2.72
2022-12-20T07:26:48.081Z,-2.69
2022-12-20T07:29:33.686Z,-2.66
2022-12-20T07:32:19.025Z,-2.65
2022-12-20T07:35:05.075Z,-2.62
2022-12-20T07:37:50.789Z,-2.60
2022-12-20T07:40:36.247Z,-2.58
2022-12-20T07:43:22.686Z,-2.52
2022-12-20T07:46:08.854Z,-2.50
2022-12-20T07:48:54.404Z,-2.48
2022-12-20T07:51:47.803Z,-2.47
2022-12-20T07:54:40.988Z,-2.44
2022-12-20T07:57:32.292Z,-2.41
2022-12-20T08:00:18.915Z,-2.38
2022-12-20T08:03:16.306Z,-2.36
2022-12-20T08:06:04.553Z,-2.33
2022-12-20T08:08:57.328Z,-2.35
2022-12-20T08:11:46.692Z,-2.32
2022-12-20T08:14:32.448Z,-2.24
2022-12-20T08:17:18.639Z,-2.18
2022-12-20T08:20:05.955Z,-2.12
2022-12-20T08:22:51.680Z,-2.03
2022-12-20T08:25:41.439Z,-1.95
2022-12-20T08:28:27.593Z,-1.84
2022-12-20T08:31:13.094Z,-1.75
2022-12-20T08:33:59.021Z,-1.66
2022-12-20T08:36:44.847Z,-1.54
2022-12-20T08:39:30.255Z,-1.45
2022-12-20T08:42:15.758Z,-1.39
2022-12-20T08:45:01.171Z,-1.31
2022-12-20T08:47:46.585Z,-1.26
2022-12-20T08:50:32.317Z,-1.22
2022-12-20T08:53:17.881Z,-1.16
2022-12-20T08:56:09.455Z,-1.11
2022-12-20T08:58:54.671Z,-1.08
2022-12-20T09:01:40.444Z,-1.03
2022-12-20T09:04:25.935Z,-1.00
2022-12-20T09:07:11.293Z,-1.01
2022-12-20T09:09:56.837Z,-1.04
2022-12-20T09:12:42.205Z,-1.03
2022-12-20T09:15:28.226Z,-1.02
2022-12-20T09:18:14.074Z,-0.97
2022-12-20T09:21:04.901Z,-0.90
2022-12-20T09:23:52.433Z,-0.91
2022-12-20T09:26:38.319Z,-0.87
2022-12-20T09:29:29.595Z,-0.83
2022-12-20T09:32:19.100Z,-0.78
2022-12-20T09:35:05.515Z,-0.75
2022-12-20T09:37:50.855Z,-0.71
2022-12-20T09:40:38.731Z,-0.65
2022-12-20T09:43:24.892Z,-0.59
2022-12-20T09:46:15.740Z,-0.56
2022-12-20T09:49:02.471Z,-0.52
2022-12-20T09:52:10.915Z,-0.46
2022-12-20T09:55:22.691Z,-0.43
2022-12-20T09:58:35.862Z,-0.39
2022-12-20T10:01:25.576Z,-0.36
2022-12-20T10:04:25.909Z,-0.35
2022-12-20T10:07:29.455Z,-0.29
2022-12-20T10:10:39.271Z,-0.24
2022-12-20T10:14:03.350Z,-0.19
2022-12-20T10:17:37.430Z,-0.17
2022-12-20T10:20:44.680Z,-0.16
2022-12-20T10:23:48.838Z,-0.14
2022-12-20T10:26:34.545Z,-0.11
2022-12-20T10:29:21.417Z,-0.08
2022-12-20T10:32:14.061Z,-0.04
2022-12-20T10:35:12.008Z,-0.01
2022-12-20T10:38:10.229Z,0.02
2022-12-20T10:44:15.644Z,0.08
2022-12-20T10:47:01.518Z,0.12
2022-12-20T10:49:47.393Z,0.16
2022-12-20T10:52:32.864Z,0.19
2022-12-20T10:55:42.000Z,0.19
2022-12-20T10:58:27.475Z,0.19
2022-12-20T11:01:15.882Z,0.21
2022-12-20T11:04:07.579Z,0.22
2022-12-20T11:06:53.649Z,0.26
2022-12-20T11:09:40.154Z,0.27
2022-12-20T11:12:26.187Z,0.30
2022-12-20T11:15:33.962Z,0.34
2022-12-20T11:18:26.163Z,0.37
2022-12-20T11:21:34.016Z,0.37
2022-12-20T11:24:50.167Z,0.40
2022-12-20T11:27:38.386Z,0.39
2022-12-20T11:30:39.575Z,0.39
2022-12-20T11:33:38.449Z,0.36
2022-12-20T11:37:07.693Z,0.31
2022-12-20T11:40:18.416Z,0.27
2022-12-20T11:43:25.897Z,0.25
2022-12-20T11:46:30.851Z,0.27
2022-12-20T11:49:29.860Z,0.32
2022-12-20T11:52:52.201Z,0.39
2022-12-20T11:55:46.110Z,0.47
2022-12-20T11:58:45.079Z,0.55
2022-12-20T12:01:46.956Z,0.66
2022-12-20T12:04:42.611Z,0.75
2022-12-20T12:07:34.295Z,0.86
2022-12-20T12:10:32.603Z,0.95
2022-12-20T12:13:25.180Z,1.02
2022-12-20T12:16:18.097Z,0.96
2022-12-20T12:19:04.343Z,1.04
2022-12-20T12:22:02.131Z,1.20
2022-12-20T12:24:56.495Z,1.33
2022-12-20T12:27:41.928Z,1.46
2022-12-20T12:30:41.385Z,1.53
2022-12-20T12:33:47.488Z,1.53
2022-12-20T12:37:03.473Z,1.50
2022-12-20T12:40:18.032Z,1.44
2022-12-20T12:43:09.901Z,1.38
2022-12-20T12:46:13.969Z,1.34
2022-12-20T12:49:06.960Z,1.30
2022-12-20T12:51:58.876Z,1.27
2022-12-20T12:54:44.566Z,1.22
2022-12-20T12:57:57.306Z,1.18
2022-12-20T13:00:49.453Z,1.14
2022-12-20T13:03:39.810Z,1.12
2022-12-20T13:06:31.090Z,1.09
2022-12-20T13:09:25.945Z,1.05
2022-12-20T13:12:36.529Z,1.00
2022-12-20T13:15:22.476Z,0.94
2022-12-20T13:18:11.531Z,0.89
2022-12-20T13:21:17.332Z,0.85
2022-12-20T13:24:38.197Z,0.83
2022-12-20T13:27:42.343Z,0.78
2022-12-20T13:30:29.646Z,0.75
2022-12-20T13:33:24.692Z,0.70
2022-12-20T13:36:10.339Z,0.66
2022-12-20T13:39:04.801Z,0.60
2022-12-20T13:42:31.963Z,0.57
2022-12-20T13:45:18.759Z,0.54
2022-12-20T13:48:11.428Z,0.49
2022-12-20T13:50:58.584Z,0.41
2022-12-20T13:53:57.789Z,0.35
2022-12-20T13:56:49.482Z,0.29
2022-12-20T13:59:35.500Z,0.25
2022-12-20T14:02:36.741Z,0.16
2022-12-20T14:05:31.892Z,0.14
2022-12-20T14:08:21.268Z,0.12
2022-12-20T14:11:15.274Z,0.11
2022-12-20T14:14:03.485Z,0.10
2022-12-20T14:16:49.169Z,0.09
2022-12-20T14:19:35.315Z,0.08
2022-12-20T14:22:21.163Z,0.05
2022-12-20T14:25:08.863Z,0.01
2022-12-20T14:27:55.920Z,0.01
2022-12-20T14:30:44.630Z,0.01
2022-12-20T14:33:37.972Z,-0.01
2022-12-20T14:36:23.617Z,-0.02
2022-12-20T14:39:29.018Z,-0.04
2022-12-20T14:42:19.447Z,-0.08
2022-12-20T14:45:15.189Z,-0.10
2022-12-20T14:48:06.731Z,-0.15
2022-12-20T14:50:54.221Z,-0.20
2022-12-20T14:53:40.482Z,-0.23
2022-12-20T14:56:31.625Z,-0.27
2022-12-20T14:59:26.389Z,-0.33
2022-12-20T15:02:46.104Z,-0.36
2022-12-20T15:05:40.440Z,-0.38
2022-12-20T15:08:32.424Z,-0.40
2022-12-20T15:11:22.694Z,-0.42
2022-12-20T15:14:39.489Z,-0.47
2022-12-20T15:17:25.728Z,-0.52
2022-12-20T15:20:15.347Z,-0.56
2022-12-20T15:23:00.968Z,-0.60
2022-12-20T15:25:47.265Z,-0.62
2022-12-20T15:28:32.938Z,-0.65
2022-12-20T15:31:20.930Z,-0.66
2022-12-20T15:34:27.628Z,-0.70
2022-12-20T15:37:18.349Z,-0.71
2022-12-20T15:40:05.098Z,-0.72
2022-12-20T15:42:51.832Z,-0.74
2022-12-20T15:45:37.324Z,-0.75
2022-12-20T15:48:24.061Z,-0.77
2022-12-20T15:51:17.678Z,-0.79
2022-12-20T15:54:07.051Z,-0.80
2022-12-20T15:56:53.179Z,-0.82
2022-12-20T16:02:45.648Z,-0.84
2022-12-20T16:05:31.620Z,-0.85
2022-12-20T16:08:18.826Z,-0.86
2022-12-20T16:11:06.677Z,-0.88
2022-12-20T16:13:52.367Z,-0.88
2022-12-20T16:16:38.595Z,-0.88
2022-12-20T16:19:24.449Z,-0.90
2022-12-20T16:22:18.230Z,-0.90
2022-12-20T16:25:04.346Z,-0.92
2022-12-20T16:27:49.634Z,-0.91
2022-12-20T16:30:35.392Z,-0.90
2022-12-20T16:33:22.155Z,-0.90
2022-12-20T16:36:11.597Z,-0.89
2022-12-20T16:38:57.402Z,-0.91
2022-12-20T16:41:44.388Z,-0.91
2022-12-20T16:44:30.010Z,-0.93
2022-12-20T16:47:16.035Z,-0.92
2022-12-20T16:50:01.649Z,-0.93
2022-12-20T16:52:47.814Z,-0.93
2022-12-20T16:55:39.610Z,-0.93
2022-12-20T16:58:44.957Z,-0.94
2022-12-20T17:01:35.039Z,-0.95
2022-12-20T17:04:21.514Z,-0.95
2022-12-20T17:07:07.277Z,-0.95
2022-12-20T17:09:52.932Z,-0.94
2022-12-20T17:12:38.819Z,-0.93
2022-12-20T17:15:31.897Z,-0.95
2022-12-20T17:18:17.855Z,-0.92
2022-12-20T17:21:14.926Z,-0.94
2022-12-20T17:24:00.802Z,-0.95
2022-12-20T17:26:46.894Z,-0.94
2022-12-20T17:29:32.726Z,-0.94
2022-12-20T17:32:21.460Z,-0.94
2022-12-20T17:35:15.463Z,-0.94
2022-12-20T17:38:02.004Z,-0.95
2022-12-20T17:40:47.390Z,-0.95
2022-12-20T17:43:32.834Z,-0.94
2022-12-20T17:46:18.905Z,-0.95
2022-12-20T17:49:04.381Z,-0.97
2022-12-20T17:51:51.993Z,-0.99
2022-12-20T17:54:40.290Z,-0.99
2022-12-20T17:57:25.901Z,-1.01
2022-12-20T18:00:21.136Z,-1.03
2022-12-20T18:03:07.313Z,-1.04
2022-12-20T18:05:52.983Z,-1.05
2022-12-20T18:08:38.544Z,-1.07
2022-12-20T18:11:26.850Z,-1.07
2022-12-20T18:14:12.843Z,-1.08
2022-12-20T18:16:58.768Z,-1.08
2022-12-20T18:19:46.021Z,-1.08
2022-12-20T18:22:34.461Z,-1.08
2022-12-20T18:25:20.368Z,-1.08
2022-12-20T18:28:06.098Z,-1.09
2022-12-20T18:30:52.688Z,-1.10
2022-12-20T18:33:38.625Z,-1.09
2022-12-20T18:36:30.179Z,-1.10
2022-12-20T18:39:16.779Z,-1.09
2022-12-20T18:42:02.361Z,-1.11
2022-12-20T18:44:48.093Z,-1.09
2022-12-20T18:47:33.885Z,-1.10
2022-12-20T18:50:19.350Z,-1.09
2022-12-20T18:53:04.835Z,-1.10
2022-12-20T18:55:50.666Z,-1.10
2022-12-20T18:58:37.165Z,-1.11
2022-12-20T19:01:27.315Z,-1.11
2022-12-20T19:04:15.102Z,-1.11
2022-12-20T19:07:02.671Z,-1.10
2022-12-20T19:09:48.178Z,-1.11
2022-12-20T19:12:34.824Z,-1.11
2022-12-20T19:15:20.507Z,-1.12
2022-12-20T19:18:07.058Z,-1.12
2022-12-20T19:20:52.723Z,-1.11
2022-12-20T19:23:40.391Z,-1.12
2022-12-20T19:26:27.662Z,-1.13
2022-12-20T19:29:13.066Z,-1.14
2022-12-20T19:31:58.666Z,-1.14
2022-12-20T19:34:44.216Z,-1.13
2022-12-20T19:37:37.003Z,-1.13
2022-12-20T19:40:23.290Z,-1.13
2022-12-20T19:43:09.041Z,-1.11
2022-12-20T19:45:57.647Z,-1.11
2022-12-20T19:48:43.431Z,-1.13
2022-12-20T19:51:29.016Z,-1.13
2022-12-20T19:54:14.499Z,-1.14
2022-12-20T19:56:59.876Z,-1.15
2022-12-20T19:59:50.814Z,-1.18
2022-12-20T20:02:39.665Z,-1.21
2022-12-20T20:05:25.689Z,-1.26
2022-12-20T20:08:11.196Z,-1.32
2022-12-20T20:11:01.480Z,-1.37
2022-12-20T20:13:51.199Z,-1.41
2022-12-20T20:16:38.065Z,-1.46
2022-12-20T20:19:24.756Z,-1.50
2022-12-20T20:22:10.959Z,-1.56
2022-12-20T20:24:56.624Z,-1.61
2022-12-20T20:27:42.426Z,-1.67
2022-12-20T20:30:29.748Z,-1.76
2022-12-20T20:33:15.561Z,-1.79
2022-12-20T20:36:01.935Z,-1.82
2022-12-20T20:38:47.945Z,-1.85
2022-12-20T20:41:33.591Z,-1.88
2022-12-20T20:44:19.096Z,-1.90
2022-12-20T20:47:05.671Z,-1.91
2022-12-20T20:49:53.021Z,-1.91
2022-12-20T20:52:38.591Z,-1.91
2022-12-20T20:55:23.957Z,-1.94
2022-12-20T20:58:09.769Z,-1.94
2022-12-20T21:01:00.576Z,-1.92
2022-12-20T21:03:46.408Z,-1.91
2022-12-20T21:06:39.898Z,-1.88
2022-12-20T21:09:26.225Z,-1.86
2022-12-20T21:12:11.829Z,-1.85
2022-12-20T21:15:22.567Z,-1.84
2022-12-20T21:18:03.654Z,-1.82
2022-12-20T21:20:50.506Z,-1.81
2022-12-20T21:23:36.473Z,-1.82
2022-12-20T21:26:23.686Z,-1.80
2022-12-20T21:29:09.225Z,-1.80
2022-12-20T21:31:54.616Z,-1.80
2022-12-20T21:34:39.938Z,-1.81
2022-12-20T21:37:25.941Z,-1.81
2022-12-20T21:40:12.011Z,-1.81
2022-12-20T21:42:57.750Z,-1.82
2022-12-20T21:45:43.514Z,-1.79
2022-12-20T21:48:29.775Z,-1.76
2022-12-20T21:51:21.332Z,-1.75
2022-12-20T21:54:07.205Z,-1.73
2022-12-20T21:56:52.921Z,-1.71
2022-12-20T21:59:38.611Z,-1.68
2022-12-20T22:02:24.875Z,-1.65
2022-12-20T22:05:10.337Z,-1.63
2022-12-20T22:07:56.007Z,-1.60
2022-12-20T22:10:41.781Z,-1.57
2022-12-20T22:13:28.698Z,-1.55
2022-12-20T22:16:21.379Z,-1.51
2022-12-20T22:19:07.279Z,-1.50
2022-12-20T22:21:57.928Z,-1.48
2022-12-20T22:24:44.081Z,-1.47
2022-12-20T22:27:29.456Z,-1.45
2022-12-20T22:30:14.864Z,-1.43
2022-12-20T22:33:00.501Z,-1.42
2022-12-20T22:35:46.168Z,-1.39
2022-12-20T22:38:31.957Z,-1.37
2022-12-20T22:41:26.665Z,-1.36
2022-12-20T22:44:12.347Z,-1.35
2022-12-20T22:46:57.973Z,-1.32
2022-12-20T22:49:43.712Z,-1.31
2022-12-20T22:52:29.555Z,-1.30
2022-12-20T22:55:15.817Z,-1.29
2022-12-20T22:58:01.744Z,-1.27
2022-12-20T23:00:48.253Z,-1.25
2022-12-20T23:03:34.289Z,-1.26
2022-12-20T23:06:21.519Z,-1.26
2022-12-20T23:09:07.271Z,-1.25
2022-12-20T23:12:11.710Z,-1.25
2022-12-20T23:15:16.015Z,-1.22
2022-12-20T23:18:01.335Z,-1.20
2022-12-20T23:21:12.310Z,-1.19
2022-12-20T23:23:58.119Z,-1.19
2022-12-20T23:26:44.311Z,-1.17
2022-12-20T23:29:30.523Z,-1.17
2022-12-20T23:32:16.158Z,-1.17
2022-12-20T23:35:08.220Z,-1.16
2022-12-20T23:37:58.269Z,-1.16
2022-12-20T23:40:45.090Z,-1.16
2022-12-20T23:43:31.644Z,-1.19
2022-12-20T23:46:19.995Z,-1.17
2022-12-20T23:49:06.185Z,-1.17
2022-12-20T23:51:51.462Z,-1.17
2022-12-20T23:54:37.331Z,-1.17
2022-12-20T23:57:23.690Z,-1.18
